KBJI/BJI METAR and TAF weather

Enter ICAO airport designator
Station Type Date Time Source
KBJI METAR 2020/03/28 20:15 UTC NOAA

KBJI 282015Z AUTO 07006KT 10SM CLR 09/00 A2982 RMK AO2 T00851002


Station Type Date Time Source
KBJI Decoded METAR 2020/03/28 20:15 UTC NOAA

Bemidji, MN, United States (KBJI) 47-30N 094-56W 420M
Mar 28, 2020 - 04:15 PM EDT / 2020.03.28 2015 UTC
Wind: from the ENE (070 degrees) at 7 MPH (6 KT):0
Visibility: 10 mile(s):0
Sky conditions: clear
Temperature: 47.3 F (8.5 C)
Dew Point: 31.6 F (-0.2 C)
Relative Humidity: 54%
Pressure (altimeter): 29.82 in. Hg (1009 hPa)
ob: KBJI 282015Z AUTO 07006KT 10SM CLR 09/00 A2982 RMK AO2 T00851002
cycle: 20

Station Type Date Time Source
KBJI TAF 2020/03/28 18:42 UTC NOAA

TAF KBJI 281739Z 2818/2918 10007KT P6SM SCT250
FM290000 VRB05KT P6SM BKN250
FM290600 36007KT P6SM BKN070

Example: see airport list